• Join FlightAware (Why Join?)
  • Login
  • US Flag 
02:51PM EST


 

Airport Tracker/Info


-or-


 

Live Flight TrackerFlight Track Log ✈ GJS3710 ✈ 13-Aug-2013 ✈ KPHL - KORD

Flight Track Log - Related Links

Times and Time Zones

All times are in EDT time to prevent confusion due to time zone crossing. See the GJS3710 flight status page for this flight to view local times or setup timezone preferences in your user account.

Time Position Orientation Groundspeed Altitude Reporting Facility
EDT Latitude Longitude Course Direction KTS MPH feet Rate Location/Type
01:22PM 39.8833 -75.2167 78° East 157 181 700  Level Philadelphia TRACON
01:24PM 39.9000 -75.1167 78° East 217 250 3,500 1,980 Climbing Philadelphia TRACON
01:25PM 39.9500 -75.1000 14° North 230 265 5,500 2,100 Climbing Philadelphia TRACON
01:26PM 40.0167 -75.1167 349° North 257 296 8,000 2,220 Climbing Philadelphia TRACON
01:26PM 40.0500 -75.1667 311° West 273 314 9,800 1,080 Climbing Philadelphia TRACON
01:27PM 40.1000 -75.2667 303° West 275 316 10,000 480 Climbing Philadelphia TRACON
01:29PM 40.1333 -75.3500 298° West 293 337 10,900 1,260 Climbing Philadelphia TRACON
01:30PM 40.1806 -75.4656 298° West 324 373 12,900 1,440 Climbing New York Center
01:31PM 40.2328 -75.5669 304° West 339 390 14,000 1,320 Climbing New York Center
01:32PM 40.3161 -75.6189 335° Northwest 345 397 15,600 1,500 Climbing New York Center
01:33PM 40.4094 -75.6772 335° Northwest 363 418 17,000 720 Climbing New York Center
01:34PM 40.4822 -75.7864 311° West 380 437 17,100  Climbing New York Center
01:35PM 40.4972 -75.9183 279° West 352 405 17,100 540 Level New York Center
01:36PM 40.5086 -76.0394 277° West 360 414 18,300 1,320 Climbing New York Center
01:37PM 40.5203 -76.1931 276° West 382 440 19,700 1,320 Climbing New York Center
01:38PM 40.5328 -76.3333 277° West 388 447 20,900 1,020 Climbing New York Center
01:39PM 40.5444 -76.4792 276° West 393 452 21,800 840 Climbing New York Center
01:40PM 40.5581 -76.6278 277° West 403 464 22,700 900 Climbing New York Center
01:41PM 40.5714 -76.7792 277° West 415 478 23,600 900 Climbing New York Center
01:42PM 40.5844 -76.9308 277° West 420 483 24,600 900 Climbing New York Center
01:43PM 40.5961 -77.0658 277° West 420 483 25,400 900 Climbing New York Center
01:44PM 40.6086 -77.2172 276° West 420 483 26,400 1,080 Climbing New York Center
01:45PM 40.6244 -77.3831 277° West 420 483 27,600 1,020 Climbing New York Center
01:47PM 40.6511 -77.7506 276° West 407 468 30,100 1,020 Climbing Cleveland Center
01:48PM 40.6672 -77.8978 278° West 407 468 31,100 960 Climbing Cleveland Center
01:49PM 40.6892 -78.0419 281° West 407 468 32,100 960 Climbing Cleveland Center
01:50PM 40.7069 -78.1836 279° West 407 468 33,100 960 Climbing Cleveland Center
01:51PM 40.7267 -78.3281 280° West 407 468 34,100 960 Climbing Cleveland Center
01:52PM 40.7458 -78.4672 280° West 407 468 35,100 900 Climbing Cleveland Center
01:53PM 40.7650 -78.6064 280° West 401 461 36,000 420 Climbing Cleveland Center
01:54PM 40.7842 -78.7458 280° West 395 455 36,000  Level Cleveland Center
01:55PM 40.8031 -78.8906 280° West 395 455 36,000 120 Level Cleveland Center
01:56PM 40.8236 -79.0192 282° West 395 455 36,300 600 Climbing Cleveland Center
01:57PM 40.8400 -79.1586 279° West 395 455 37,300 840 Climbing Cleveland Center
01:58PM 40.8606 -79.2956 281° West 389 448 38,000 300 Climbing Cleveland Center
01:59PM 40.8764 -79.4325 279° West 389 448 38,000  Level Cleveland Center
02:00PM 40.8944 -79.5694 280° West 389 448 38,000  Level Cleveland Center
02:01PM 40.9122 -79.7094 280° West 389 448 38,000  Level Cleveland Center
02:02PM 40.9278 -79.8519 278° West 389 448 38,000  Level Cleveland Center
02:03PM 40.9433 -79.9894 279° West 389 448 38,000  Level Cleveland Center
02:04PM 40.9606 -80.1294 279° West 389 448 38,000  Level Cleveland Center
02:05PM 40.9778 -80.2697 279° West 389 448 38,000  Level Cleveland Center
02:06PM 40.9947 -80.4097 279° West 389 448 38,000  Level Cleveland Center
02:08PM 41.0080 -80.5992 277° West  Level FlightAware Approximate
02:08PM 41.0281 -80.6906 277° West 389 448 38,000  Level Cleveland Center
02:09PM 41.0467 -80.8475 279° West 389 448 38,000  Level Cleveland Center
02:10PM 41.0567 -80.9878 275° West 389 448 38,000  Level Cleveland Center
02:11PM 41.0622 -81.1172 273° West 389 448 38,000  Level Cleveland Center
02:12PM 41.0700 -81.2606 274° West 389 448 38,000  Level Cleveland Center
02:14PM 41.0815 -81.4496 275° West  Level FlightAware Approximate
02:14PM 41.0867 -81.5528 275° West 389 448 38,000  Level Cleveland Center
02:15PM 41.0958 -81.6936 275° West 389 448 38,000  Level Cleveland Center
02:16PM 41.1047 -81.8314 275° West 384 442 38,000  Level Cleveland Center
02:17PM 41.1114 -81.9667 274° West 384 442 38,000  Level Cleveland Center
02:18PM 41.1222 -82.1019 276° West 379 436 38,000  Level Cleveland Center
02:19PM 41.1269 -82.2261 273° West 379 436 38,000  Level Cleveland Center
02:20PM 41.1353 -82.3642 275° West 379 436 38,000  Level Cleveland Center
02:21PM 41.1433 -82.4994 275° West 379 436 38,000  Level Cleveland Center
02:22PM 41.1494 -82.6347 273° West 372 428 38,000  Level Cleveland Center
02:23PM 41.1572 -82.7756 274° West 372 428 38,000  Level Cleveland Center
02:24PM 41.1625 -82.9247 273° West 372 428 38,000  Level Cleveland Center
02:25PM 41.1700 -83.0603 274° West 372 428 38,000 -60 Level Cleveland Center
02:26PM 41.1733 -83.1983 272° West 372 428 37,900 -300 Descending Cleveland Center
02:27PM 41.1825 -83.3339 275° West 372 428 37,400 -540 Descending Cleveland Center
02:28PM 41.1878 -83.4667 273° West 372 428 36,900 -540 Descending Cleveland Center
02:29PM 41.1947 -83.5967 274° West 366 421 36,400 -540 Descending Cleveland Center
02:30PM 41.1997 -83.7239 273° West 361 415 35,900 -540 Descending Cleveland Center
02:31PM 41.2064 -83.8539 274° West 361 415 35,400 -540 Descending Cleveland Center
02:32PM 41.2136 -83.9747 275° West 363 418 34,900 -540 Descending Chicago Center
02:33PM 41.2194 -84.1103 273° West 373 429 34,400 -480 Descending Chicago Center
02:34PM 41.2244 -84.2497 273° West 377 434 34,000 -240 Descending Chicago Center
02:35PM 41.2283 -84.3878 272° West 377 434 34,000  Level Chicago Center
02:36PM 41.2328 -84.5506 272° West 369 425 34,000  Level Chicago Center
02:37PM 41.2369 -84.6864 272° West 368 423 34,000  Level Chicago Center
02:38PM 41.2408 -84.8217 272° West 368 423 34,000  Level Chicago Center
02:39PM 41.2456 -84.9572 273° West 366 421 34,000  Level Chicago Center
02:40PM 41.2517 -85.0947 273° West 370 426 34,000 -60 Level Chicago Center
02:41PM 41.2561 -85.2308 273° West 369 425 33,900 -540 Descending Chicago Center
02:42PM 41.2614 -85.3711 273° West 372 428 33,000 -1,620 Descending Chicago Center
02:43PM 41.2675 -85.5414 273° West 381 438 30,600 -2,220 Descending Chicago Center
02:44PM 41.2719 -85.6875 272° West 391 450 28,500 -2,100 Descending Chicago Center
02:45PM 41.2764 -85.8358 272° West 397 457 26,300 -1,740 Descending Chicago Center
02:47PM 41.2803 -85.9769 272° West 386 444 25,000 -660 Descending Chicago Center
02:48PM 41.3017 -86.1125 282° West 378 435 25,000 -60 Level Chicago Center
02:49PM 41.3350 -86.2467 288° West 379 436 24,900 -660 Descending Chicago Center
02:50PM 41.3700 -86.3836 289° West 386 444 23,700 -1,800 Descending Chicago Center
02:51PM 41.4097 -86.5433 288° West 380 437 21,300 -2,160 Descending Chicago Center
02:52PM 41.4406 -86.6692 288° West 371 427 19,300 -1,860 Descending Chicago Center
02:53PM 41.4719 -86.7914 289° West 359 413 17,500 -2,040 Descending Chicago Center
02:54PM 41.5075 -86.9367 288° West 347 399 15,100 -2,100 Descending Chicago Center
02:55PM 41.5364 -87.0581 288° West 345 397 13,200 -1,500 Descending Chicago Center
02:56PM 41.5639 -87.1706 288° West 325 374 12,100 -1,020 Descending Chicago Center
02:57PM 41.6033 -87.2786 296° West 327 376 11,200 -540 Descending Chicago Center
02:58PM 41.6600 -87.3700 310° West 321 369 11,000 -120 Descending Chicago Center
02:59PM 41.7269 -87.4806 309° West 323 372 11,000  Level Chicago Center
03:00PM 41.7858 -87.5656 313° West 318 366 11,000 -300 Level Chicago Center
03:01PM 41.8519 -87.6342 322° Northwest 305 351 10,500 -1,200 Descending Chicago Center
03:02PM 41.9000 -87.6833 323° Northwest 260 299 9,000 -2,040 Descending Chicago TRACON
03:03PM 41.9500 -87.7333 323° Northwest 260 299 7,200 -1,020 Descending Chicago TRACON
03:04PM 42.0000 -87.8167 309° West 252 290 7,000 -120 Descending Chicago TRACON
03:05PM 42.0167 -87.9000 285° West 234 269 7,000  Level Chicago TRACON
03:06PM 42.0333 -87.9667 289° West 191 220 7,000 -600 Level Chicago TRACON
03:07PM 42.0500 -88.0500 285° West 190 219 5,800 -1,020 Descending Chicago TRACON
03:08PM 42.0500 -88.1167 270° West 188 216 4,900 -900 Descending Chicago TRACON
03:08PM 42.0453 -88.1339 250° West 200 230 4,500 -1,500 Descending Chicago Center
03:09PM 42.0167 -88.1167 156° South 202 232 3,400 -1,200 Descending Chicago TRACON
03:10PM 42.0000 -88.0667 114° Southeast 159 183 2,900 -660 Descending Chicago TRACON
03:11PM 41.9833 -88.0167 114° Southeast 151 174 2,200 -780 Descending Chicago TRACON
03:12PM 41.9833 -87.9667 90° East 138 159 1,400 -840 Descending Chicago TRACON
03:14PM 41.9817 -87.9067 137° Southeast  Level Estimated